UAL155 PTKK-PTPN
Flight info
| Callsign | UAL155 |
|---|---|
| Flight time | 1h 1m |
| Altitude | 31000 |
| Route | MICNO R584 BIRUQ |
| Aircraft | B38M/M-SDE1FGHILORVWXY/HB1 |
Departure
| Time | 2026-04-20 17:20 |
|---|---|
| Airport | Chuuk International Airport (PTKK) |
Arrival
| Time | 2026-04-20 18:22 |
|---|---|
| Airport | Pohnpei International Airport (PTPN) |
| Time | Latitude | Longitude | Altitude | Speed | Heading |
|---|---|---|---|---|---|
| 2026-04-20 17:00 | 7.45830 | 151.84142 | 22 ft | 0 kts | 228° |
| 2026-04-20 17:17 | 7.45829 | 151.84140 | 26 ft | 1 kts | 229° |
| 2026-04-20 17:17 | 7.45823 | 151.84124 | 22 ft | 4 kts | 261° |
| 2026-04-20 17:17 | 7.45829 | 151.84102 | 23 ft | 6 kts | 300° |
| 2026-04-20 17:17 | 7.45846 | 151.84083 | 22 ft | 0 kts | 313° |
| 2026-04-20 17:18 | 7.45851 | 151.84079 | 22 ft | 4 kts | 313° |
| 2026-04-20 17:18 | 7.45891 | 151.84014 | 22 ft | 18 kts | 274° |
| 2026-04-20 17:18 | 7.45800 | 151.83890 | 23 ft | 26 kts | 224° |
| 2026-04-20 17:19 | 7.45685 | 151.83762 | 21 ft | 21 kts | 246° |
| 2026-04-20 17:19 | 7.45633 | 151.83701 | 20 ft | 4 kts | 143° |
| 2026-04-20 17:19 | 7.45640 | 151.83724 | 20 ft | 0 kts | 45° |
| 2026-04-20 17:19 | 7.45653 | 151.83737 | 21 ft | 20 kts | 45° |
| 2026-04-20 17:20 | 7.45954 | 151.84048 | 23 ft | 102 kts | 46° |
| 2026-04-20 17:20 | 7.46617 | 151.84738 | 31 ft | 168 kts | 45° |
| 2026-04-20 17:20 | 7.47470 | 151.85653 | 559 ft | 190 kts | 45° |
| 2026-04-20 17:20 | 7.48380 | 151.86626 | 1487 ft | 193 kts | 45° |
| 2026-04-20 17:21 | 7.49318 | 151.87626 | 2314 ft | 199 kts | 44° |
| 2026-04-20 17:21 | 7.50104 | 151.88782 | 3444 ft | 206 kts | 65° |
| 2026-04-20 17:21 | 7.50469 | 151.90279 | 4098 ft | 240 kts | 85° |
| 2026-04-20 17:21 | 7.50369 | 151.92023 | 4812 ft | 251 kts | 98° |
| 2026-04-20 17:22 | 7.50031 | 151.93752 | 5741 ft | 256 kts | 102° |
| 2026-04-20 17:22 | 7.49583 | 151.95523 | 6353 ft | 272 kts | 103° |
| 2026-04-20 17:22 | 7.49232 | 151.97407 | 7169 ft | 274 kts | 99° |
| 2026-04-20 17:22 | 7.48904 | 151.99310 | 8053 ft | 279 kts | 99° |
| 2026-04-20 17:23 | 7.48560 | 152.01242 | 8907 ft | 281 kts | 100° |
| 2026-04-20 17:23 | 7.48209 | 152.03189 | 9769 ft | 284 kts | 100° |
| 2026-04-20 17:23 | 7.47848 | 152.05168 | 10406 ft | 295 kts | 100° |
| 2026-04-20 17:23 | 7.47464 | 152.07264 | 10752 ft | 314 kts | 100° |
| 2026-04-20 17:24 | 7.47055 | 152.09489 | 11115 ft | 331 kts | 100° |
| 2026-04-20 17:24 | 7.46628 | 152.11810 | 11634 ft | 340 kts | 100° |
| 2026-04-20 17:24 | 7.46196 | 152.14156 | 12399 ft | 342 kts | 100° |
| 2026-04-20 17:24 | 7.45761 | 152.16522 | 13083 ft | 346 kts | 100° |
| 2026-04-20 17:25 | 7.45319 | 152.18917 | 13794 ft | 349 kts | 100° |
| 2026-04-20 17:25 | 7.44873 | 152.21337 | 14412 ft | 353 kts | 100° |
| 2026-04-20 17:25 | 7.44422 | 152.23780 | 15040 ft | 356 kts | 100° |
| 2026-04-20 17:25 | 7.43968 | 152.26242 | 15643 ft | 359 kts | 100° |
| 2026-04-20 17:26 | 7.43509 | 152.28730 | 16243 ft | 362 kts | 100° |
| 2026-04-20 17:26 | 7.43046 | 152.31237 | 16819 ft | 366 kts | 100° |
| 2026-04-20 17:26 | 7.42581 | 152.33767 | 17383 ft | 369 kts | 99° |
| 2026-04-20 17:26 | 7.42382 | 152.36350 | 17925 ft | 372 kts | 92° |
| 2026-04-20 17:27 | 7.42238 | 152.38957 | 18424 ft | 375 kts | 93° |
| 2026-04-20 17:27 | 7.42074 | 152.41592 | 18888 ft | 378 kts | 94° |
| 2026-04-20 17:27 | 7.41898 | 152.44237 | 19346 ft | 380 kts | 94° |
| 2026-04-20 17:27 | 7.41716 | 152.46905 | 19796 ft | 383 kts | 94° |
| 2026-04-20 17:28 | 7.41531 | 152.49586 | 20231 ft | 385 kts | 94° |
| 2026-04-20 17:28 | 7.41343 | 152.52293 | 20686 ft | 388 kts | 94° |
| 2026-04-20 17:28 | 7.41154 | 152.55008 | 21133 ft | 390 kts | 94° |
| 2026-04-20 17:28 | 7.40963 | 152.57746 | 21569 ft | 393 kts | 94° |
| 2026-04-20 17:29 | 7.40771 | 152.60499 | 21988 ft | 395 kts | 94° |
| 2026-04-20 17:29 | 7.40577 | 152.63271 | 22408 ft | 398 kts | 94° |
| 2026-04-20 17:29 | 7.40383 | 152.66055 | 22820 ft | 400 kts | 94° |
| 2026-04-20 17:29 | 7.40186 | 152.68866 | 23222 ft | 403 kts | 94° |
| 2026-04-20 17:30 | 7.39988 | 152.71690 | 23605 ft | 405 kts | 94° |
| 2026-04-20 17:30 | 7.39789 | 152.74531 | 23934 ft | 408 kts | 94° |
| 2026-04-20 17:30 | 7.39589 | 152.77386 | 24258 ft | 410 kts | 94° |
| 2026-04-20 17:30 | 7.39387 | 152.80256 | 24597 ft | 412 kts | 94° |
| 2026-04-20 17:31 | 7.39185 | 152.83137 | 24928 ft | 414 kts | 94° |
| 2026-04-20 17:31 | 7.38980 | 152.86041 | 25259 ft | 416 kts | 94° |
| 2026-04-20 17:31 | 7.38775 | 152.88950 | 25582 ft | 418 kts | 94° |
| 2026-04-20 17:31 | 7.38569 | 152.91884 | 25906 ft | 420 kts | 94° |
| 2026-04-20 17:32 | 7.38361 | 152.94824 | 26228 ft | 422 kts | 94° |
| 2026-04-20 17:32 | 7.38155 | 152.97746 | 26534 ft | 425 kts | 94° |
| 2026-04-20 17:32 | 7.37945 | 153.00717 | 26841 ft | 427 kts | 94° |
| 2026-04-20 17:32 | 7.37733 | 153.03706 | 27150 ft | 429 kts | 94° |
| 2026-04-20 17:33 | 7.37520 | 153.06715 | 27453 ft | 431 kts | 94° |
| 2026-04-20 17:33 | 7.37306 | 153.09735 | 27755 ft | 433 kts | 94° |
| 2026-04-20 17:33 | 7.37091 | 153.12764 | 28057 ft | 435 kts | 94° |
| 2026-04-20 17:33 | 7.36874 | 153.15818 | 28344 ft | 438 kts | 94° |
| 2026-04-20 17:34 | 7.36656 | 153.18886 | 28624 ft | 440 kts | 94° |
| 2026-04-20 17:34 | 7.36437 | 153.21972 | 28911 ft | 442 kts | 94° |
| 2026-04-20 17:34 | 7.36216 | 153.25072 | 29193 ft | 445 kts | 94° |
| 2026-04-20 17:34 | 7.35994 | 153.28178 | 29468 ft | 447 kts | 94° |
| 2026-04-20 17:35 | 7.35771 | 153.31309 | 29736 ft | 449 kts | 94° |
| 2026-04-20 17:35 | 7.35546 | 153.34454 | 29990 ft | 451 kts | 94° |
| 2026-04-20 17:35 | 7.35320 | 153.37607 | 30230 ft | 453 kts | 94° |
| 2026-04-20 17:35 | 7.35094 | 153.40774 | 30459 ft | 454 kts | 94° |
| 2026-04-20 17:36 | 7.34866 | 153.43953 | 30685 ft | 456 kts | 94° |
| 2026-04-20 17:36 | 7.34637 | 153.47147 | 30879 ft | 458 kts | 94° |
| 2026-04-20 17:36 | 7.34407 | 153.50352 | 30944 ft | 460 kts | 94° |
| 2026-04-20 17:36 | 7.34176 | 153.53566 | 31204 ft | 460 kts | 94° |
| 2026-04-20 17:37 | 7.33944 | 153.56786 | 31422 ft | 462 kts | 94° |
| 2026-04-20 17:37 | 7.33712 | 153.60016 | 31637 ft | 463 kts | 94° |
| 2026-04-20 17:37 | 7.33478 | 153.63257 | 31859 ft | 465 kts | 94° |
| 2026-04-20 17:37 | 7.33243 | 153.66507 | 32090 ft | 466 kts | 94° |
| 2026-04-20 17:38 | 7.33012 | 153.69713 | 32369 ft | 465 kts | 94° |
| 2026-04-20 17:38 | 7.32777 | 153.72964 | 32655 ft | 465 kts | 94° |
| 2026-04-20 17:38 | 7.32539 | 153.76251 | 32969 ft | 464 kts | 94° |
| 2026-04-20 17:38 | 7.32305 | 153.79488 | 33301 ft | 463 kts | 94° |
| 2026-04-20 17:39 | 7.32071 | 153.82712 | 33626 ft | 461 kts | 94° |
| 2026-04-20 17:39 | 7.31837 | 153.85931 | 33946 ft | 460 kts | 94° |
| 2026-04-20 17:39 | 7.31607 | 153.89101 | 34217 ft | 459 kts | 94° |
| 2026-04-20 17:39 | 7.31374 | 153.92300 | 34502 ft | 457 kts | 94° |
| 2026-04-20 17:40 | 7.31142 | 153.95485 | 34789 ft | 456 kts | 94° |
| 2026-04-20 17:40 | 7.30909 | 153.98679 | 34926 ft | 457 kts | 94° |
| 2026-04-20 17:40 | 7.30677 | 154.01860 | 34927 ft | 455 kts | 94° |
| 2026-04-20 17:41 | 7.30214 | 154.08194 | 34927 ft | 454 kts | 94° |
| 2026-04-20 17:41 | 7.29750 | 154.14540 | 34925 ft | 454 kts | 94° |
| 2026-04-20 17:42 | 7.29285 | 154.20878 | 34922 ft | 454 kts | 94° |
| 2026-04-20 17:42 | 7.28819 | 154.27222 | 34925 ft | 454 kts | 94° |
| 2026-04-20 17:43 | 7.28352 | 154.33568 | 34928 ft | 454 kts | 94° |
| 2026-04-20 17:43 | 7.27883 | 154.39924 | 34926 ft | 457 kts | 94° |
| 2026-04-20 17:44 | 7.27411 | 154.46316 | 34923 ft | 458 kts | 94° |
| 2026-04-20 17:44 | 7.26937 | 154.52717 | 34922 ft | 458 kts | 94° |
| 2026-04-20 17:45 | 7.26462 | 154.59115 | 34925 ft | 458 kts | 94° |
| 2026-04-20 17:45 | 7.25987 | 154.65511 | 34925 ft | 458 kts | 94° |
| 2026-04-20 17:46 | 7.25510 | 154.71913 | 34922 ft | 457 kts | 94° |
| 2026-04-20 17:46 | 7.25037 | 154.78254 | 34922 ft | 457 kts | 94° |
| 2026-04-20 17:47 | 7.24560 | 154.84638 | 34925 ft | 457 kts | 94° |
| 2026-04-20 17:47 | 7.24081 | 154.91027 | 34925 ft | 457 kts | 94° |
| 2026-04-20 17:48 | 7.23602 | 154.97418 | 34925 ft | 457 kts | 94° |
| 2026-04-20 17:48 | 7.23122 | 155.03805 | 34925 ft | 458 kts | 94° |
| 2026-04-20 17:49 | 7.22640 | 155.10196 | 34925 ft | 458 kts | 94° |
| 2026-04-20 17:49 | 7.22158 | 155.16592 | 34925 ft | 458 kts | 94° |
| 2026-04-20 17:50 | 7.21675 | 155.22980 | 34925 ft | 458 kts | 94° |
| 2026-04-20 17:50 | 7.21191 | 155.29371 | 34925 ft | 458 kts | 94° |
| 2026-04-20 17:51 | 7.20706 | 155.35767 | 34922 ft | 458 kts | 94° |
| 2026-04-20 17:51 | 7.20220 | 155.42160 | 34922 ft | 458 kts | 94° |
| 2026-04-20 17:52 | 7.19733 | 155.48552 | 34922 ft | 458 kts | 94° |
| 2026-04-20 17:52 | 7.19245 | 155.54942 | 34919 ft | 458 kts | 94° |
| 2026-04-20 17:53 | 7.18757 | 155.61332 | 34920 ft | 458 kts | 94° |
| 2026-04-20 17:53 | 7.18269 | 155.67705 | 34917 ft | 455 kts | 94° |
| 2026-04-20 17:54 | 7.17781 | 155.74062 | 34920 ft | 455 kts | 94° |
| 2026-04-20 17:54 | 7.17296 | 155.80370 | 34919 ft | 455 kts | 94° |
| 2026-04-20 17:55 | 7.16804 | 155.86768 | 34917 ft | 455 kts | 94° |
| 2026-04-20 17:55 | 7.16314 | 155.93123 | 34908 ft | 456 kts | 94° |
| 2026-04-20 17:55 | 7.16071 | 155.96269 | 34752 ft | 458 kts | 95° |
| 2026-04-20 17:56 | 7.15824 | 155.99463 | 34537 ft | 459 kts | 95° |
| 2026-04-20 17:56 | 7.15576 | 156.02670 | 34311 ft | 459 kts | 95° |
| 2026-04-20 17:56 | 7.15327 | 156.05880 | 34092 ft | 460 kts | 95° |
| 2026-04-20 17:56 | 7.15078 | 156.09093 | 33871 ft | 461 kts | 95° |
| 2026-04-20 17:57 | 7.14828 | 156.12318 | 33611 ft | 462 kts | 95° |
| 2026-04-20 17:57 | 7.14578 | 156.15540 | 33360 ft | 461 kts | 95° |
| 2026-04-20 17:57 | 7.14328 | 156.18752 | 32474 ft | 463 kts | 94° |
| 2026-04-20 17:57 | 7.14075 | 156.22009 | 31397 ft | 471 kts | 94° |
| 2026-04-20 17:58 | 7.13818 | 156.25305 | 30715 ft | 470 kts | 94° |
| 2026-04-20 17:58 | 7.13565 | 156.28556 | 30283 ft | 463 kts | 94° |
| 2026-04-20 17:58 | 7.13314 | 156.31764 | 29781 ft | 457 kts | 94° |
| 2026-04-20 17:58 | 7.13066 | 156.34944 | 29113 ft | 454 kts | 94° |
| 2026-04-20 17:59 | 7.12819 | 156.38108 | 28458 ft | 452 kts | 94° |
| 2026-04-20 17:59 | 7.12574 | 156.41239 | 27913 ft | 447 kts | 94° |
| 2026-04-20 17:59 | 7.12331 | 156.44338 | 27438 ft | 441 kts | 94° |
| 2026-04-20 17:59 | 7.12091 | 156.47411 | 26874 ft | 438 kts | 94° |
| 2026-04-20 18:00 | 7.11852 | 156.50452 | 26315 ft | 435 kts | 94° |
| 2026-04-20 18:00 | 7.11614 | 156.53483 | 25758 ft | 433 kts | 94° |
| 2026-04-20 18:00 | 7.11377 | 156.56502 | 25197 ft | 431 kts | 94° |
| 2026-04-20 18:00 | 7.11141 | 156.59500 | 24663 ft | 429 kts | 94° |
| 2026-04-20 18:01 | 7.10907 | 156.62474 | 24099 ft | 423 kts | 94° |
| 2026-04-20 18:01 | 7.10675 | 156.65417 | 23566 ft | 419 kts | 94° |
| 2026-04-20 18:01 | 7.10445 | 156.68343 | 22941 ft | 418 kts | 94° |
| 2026-04-20 18:01 | 7.10216 | 156.71247 | 22387 ft | 415 kts | 94° |
| 2026-04-20 18:02 | 7.09988 | 156.74136 | 21860 ft | 412 kts | 94° |
| 2026-04-20 18:02 | 7.09761 | 156.76999 | 21344 ft | 409 kts | 94° |
| 2026-04-20 18:02 | 7.09537 | 156.79843 | 20840 ft | 406 kts | 94° |
| 2026-04-20 18:02 | 7.09313 | 156.82665 | 20345 ft | 403 kts | 94° |
| 2026-04-20 18:03 | 7.09091 | 156.85470 | 19854 ft | 400 kts | 94° |
| 2026-04-20 18:03 | 7.08871 | 156.88253 | 19376 ft | 398 kts | 94° |
| 2026-04-20 18:03 | 7.08651 | 156.91022 | 18897 ft | 396 kts | 94° |
| 2026-04-20 18:03 | 7.08432 | 156.93781 | 18426 ft | 393 kts | 94° |
| 2026-04-20 18:04 | 7.08216 | 156.96504 | 17922 ft | 387 kts | 94° |
| 2026-04-20 18:04 | 7.08004 | 156.99178 | 17427 ft | 380 kts | 94° |
| 2026-04-20 18:04 | 7.07795 | 157.01801 | 16988 ft | 373 kts | 94° |
| 2026-04-20 18:04 | 7.07590 | 157.04380 | 16558 ft | 366 kts | 94° |
| 2026-04-20 18:05 | 7.07255 | 157.08583 | 15859 ft | 360 kts | 94° |
| 2026-04-20 18:05 | 7.07055 | 157.11090 | 15441 ft | 359 kts | 94° |
| 2026-04-20 18:05 | 7.06856 | 157.13586 | 15032 ft | 357 kts | 94° |
| 2026-04-20 18:06 | 7.06658 | 157.16067 | 14618 ft | 355 kts | 94° |
| 2026-04-20 18:06 | 7.06461 | 157.18535 | 14204 ft | 353 kts | 94° |
| 2026-04-20 18:06 | 7.06264 | 157.20993 | 13805 ft | 352 kts | 94° |
| 2026-04-20 18:06 | 7.06068 | 157.23444 | 13358 ft | 350 kts | 94° |
| 2026-04-20 18:07 | 7.05873 | 157.25875 | 12925 ft | 348 kts | 94° |
| 2026-04-20 18:07 | 7.05679 | 157.28297 | 12507 ft | 345 kts | 94° |
| 2026-04-20 18:07 | 7.05487 | 157.30695 | 12112 ft | 343 kts | 94° |
| 2026-04-20 18:07 | 7.05296 | 157.33080 | 11716 ft | 340 kts | 94° |
| 2026-04-20 18:08 | 7.05107 | 157.35444 | 11318 ft | 338 kts | 94° |
| 2026-04-20 18:08 | 7.04919 | 157.37786 | 11058 ft | 332 kts | 94° |
| 2026-04-20 18:08 | 7.04736 | 157.40067 | 10903 ft | 322 kts | 94° |
| 2026-04-20 18:08 | 7.04558 | 157.42280 | 10757 ft | 313 kts | 94° |
| 2026-04-20 18:09 | 7.04385 | 157.44428 | 10602 ft | 304 kts | 94° |
| 2026-04-20 18:09 | 7.04217 | 157.46519 | 10462 ft | 295 kts | 94° |
| 2026-04-20 18:09 | 7.04053 | 157.48550 | 10317 ft | 287 kts | 94° |
| 2026-04-20 18:09 | 7.03894 | 157.50527 | 10178 ft | 279 kts | 94° |
| 2026-04-20 18:10 | 7.03739 | 157.52450 | 9973 ft | 274 kts | 94° |
| 2026-04-20 18:10 | 7.03586 | 157.54357 | 9676 ft | 273 kts | 94° |
| 2026-04-20 18:10 | 7.03432 | 157.56258 | 9338 ft | 272 kts | 94° |
| 2026-04-20 18:10 | 7.03279 | 157.58149 | 9022 ft | 270 kts | 94° |
| 2026-04-20 18:11 | 7.03128 | 157.60028 | 8721 ft | 269 kts | 94° |
| 2026-04-20 18:11 | 7.02977 | 157.61897 | 8433 ft | 267 kts | 94° |
| 2026-04-20 18:11 | 7.02827 | 157.63749 | 8134 ft | 265 kts | 94° |
| 2026-04-20 18:11 | 7.02678 | 157.65592 | 7844 ft | 263 kts | 94° |
| 2026-04-20 18:12 | 7.02530 | 157.67418 | 7558 ft | 261 kts | 94° |
| 2026-04-20 18:12 | 7.02385 | 157.69209 | 7277 ft | 260 kts | 94° |
| 2026-04-20 18:12 | 7.02214 | 157.71016 | 6981 ft | 259 kts | 96° |
| 2026-04-20 18:12 | 7.02029 | 157.72813 | 6693 ft | 257 kts | 96° |
| 2026-04-20 18:13 | 7.01847 | 157.74598 | 6437 ft | 255 kts | 96° |
| 2026-04-20 18:13 | 7.01668 | 157.76370 | 6156 ft | 254 kts | 96° |
| 2026-04-20 18:13 | 7.01490 | 157.78133 | 5875 ft | 252 kts | 96° |
| 2026-04-20 18:13 | 7.01313 | 157.79886 | 5600 ft | 251 kts | 96° |
| 2026-04-20 18:14 | 7.01137 | 157.81626 | 5328 ft | 249 kts | 96° |
| 2026-04-20 18:14 | 7.00964 | 157.83354 | 5069 ft | 247 kts | 96° |
| 2026-04-20 18:14 | 7.00791 | 157.85070 | 4800 ft | 246 kts | 96° |
| 2026-04-20 18:14 | 7.00619 | 157.86775 | 4531 ft | 244 kts | 96° |
| 2026-04-20 18:15 | 7.00448 | 157.88472 | 4263 ft | 243 kts | 96° |
| 2026-04-20 18:15 | 7.00279 | 157.90153 | 4047 ft | 239 kts | 96° |
| 2026-04-20 18:15 | 7.00114 | 157.91787 | 3919 ft | 230 kts | 96° |
| 2026-04-20 18:15 | 6.99954 | 157.93361 | 3801 ft | 221 kts | 96° |
| 2026-04-20 18:16 | 6.99802 | 157.94871 | 3679 ft | 213 kts | 96° |
| 2026-04-20 18:16 | 6.99654 | 157.96334 | 3581 ft | 210 kts | 96° |
| 2026-04-20 18:16 | 6.99507 | 157.97793 | 3485 ft | 206 kts | 96° |
| 2026-04-20 18:16 | 6.99365 | 157.99196 | 3369 ft | 198 kts | 96° |
| 2026-04-20 18:17 | 6.99227 | 158.00557 | 3249 ft | 191 kts | 96° |
| 2026-04-20 18:17 | 6.99097 | 158.01848 | 3105 ft | 180 kts | 96° |
| 2026-04-20 18:17 | 6.98971 | 158.03085 | 2865 ft | 176 kts | 96° |
| 2026-04-20 18:17 | 6.98849 | 158.04296 | 2646 ft | 170 kts | 96° |
| 2026-04-20 18:18 | 6.98733 | 158.05438 | 2539 ft | 162 kts | 96° |
| 2026-04-20 18:18 | 6.98621 | 158.06544 | 2434 ft | 153 kts | 96° |
| 2026-04-20 18:18 | 6.98587 | 158.07584 | 2395 ft | 147 kts | 90° |
| 2026-04-20 18:18 | 6.98581 | 158.08608 | 2265 ft | 146 kts | 91° |
| 2026-04-20 18:19 | 6.98564 | 158.09627 | 2124 ft | 145 kts | 90° |
| 2026-04-20 18:19 | 6.98553 | 158.10640 | 1941 ft | 146 kts | 90° |
| 2026-04-20 18:19 | 6.98548 | 158.11648 | 1728 ft | 143 kts | 89° |
| 2026-04-20 18:19 | 6.98546 | 158.12650 | 1523 ft | 144 kts | 90° |
| 2026-04-20 18:20 | 6.98540 | 158.13651 | 1312 ft | 143 kts | 90° |
| 2026-04-20 18:20 | 6.98539 | 158.14658 | 1139 ft | 147 kts | 89° |
| 2026-04-20 18:20 | 6.98527 | 158.15657 | 911 ft | 144 kts | 91° |
| 2026-04-20 18:20 | 6.98504 | 158.16677 | 779 ft | 146 kts | 89° |
| 2026-04-20 18:21 | 6.98544 | 158.17660 | 533 ft | 137 kts | 91° |
| 2026-04-20 18:21 | 6.98527 | 158.18614 | 395 ft | 135 kts | 92° |
| 2026-04-20 18:21 | 6.98524 | 158.19551 | 186 ft | 133 kts | 91° |
| 2026-04-20 18:21 | 6.98515 | 158.20445 | 24 ft | 112 kts | 90° |
| 2026-04-20 18:22 | 6.98511 | 158.20899 | 24 ft | 48 kts | 90° |
| 2026-04-20 18:22 | 6.98510 | 158.21229 | 24 ft | 46 kts | 90° |
| 2026-04-20 18:22 | 6.98508 | 158.21543 | 25 ft | 42 kts | 90° |
| 2026-04-20 18:22 | 6.98499 | 158.21775 | 24 ft | 25 kts | 109° |
| 2026-04-20 18:23 | 6.98485 | 158.21867 | 25 ft | 8 kts | 27° |
| 2026-04-20 18:23 | 6.98516 | 158.21825 | 23 ft | 13 kts | 262° |
| 2026-04-20 18:23 | 6.98509 | 158.21704 | 24 ft | 22 kts | 271° |
| 2026-04-20 18:23 | 6.98505 | 158.21532 | 24 ft | 26 kts | 271° |
| 2026-04-20 18:24 | 6.98508 | 158.21340 | 23 ft | 29 kts | 271° |
| 2026-04-20 18:24 | 6.98510 | 158.21136 | 24 ft | 30 kts | 270° |
| 2026-04-20 18:24 | 6.98511 | 158.20923 | 24 ft | 31 kts | 271° |
| 2026-04-20 18:24 | 6.98512 | 158.20698 | 24 ft | 33 kts | 270° |
| 2026-04-20 18:25 | 6.98512 | 158.20474 | 24 ft | 30 kts | 270° |
| 2026-04-20 18:25 | 6.98453 | 158.20361 | 22 ft | 20 kts | 195° |
| 2026-04-20 18:25 | 6.98300 | 158.20360 | 20 ft | 22 kts | 173° |
| 2026-04-20 18:25 | 6.98209 | 158.20392 | 20 ft | 5 kts | 179° |
| 2026-04-20 18:26 | 6.98206 | 158.20392 | 20 ft | 0 kts | 179° |